sensor_id;sensor_type;location;lat;lon;timestamp;P1;durP1;ratioP1;P2;durP2;ratioP2
81934;SDS011;71405;47.674;-2.050;2023-12-07T00:00:39;3.83;;;2.05;;
81934;SDS011;71405;47.674;-2.050;2023-12-07T00:03:04;4.80;;;2.20;;
81934;SDS011;71405;47.674;-2.050;2023-12-07T00:05:32;5.55;;;2.47;;
81934;SDS011;71405;47.674;-2.050;2023-12-07T00:07:58;3.47;;;2.00;;
81934;SDS011;71405;47.674;-2.050;2023-12-07T00:10:24;4.72;;;2.10;;
81934;SDS011;71405;47.674;-2.050;2023-12-07T00:12:49;4.55;;;2.30;;
81934;SDS011;71405;47.674;-2.050;2023-12-07T00:15:15;5.35;;;2.25;;
81934;SDS011;71405;47.674;-2.050;2023-12-07T00:17:41;5.78;;;2.15;;
81934;SDS011;71405;47.674;-2.050;2023-12-07T00:20:06;4.70;;;2.25;;
81934;SDS011;71405;47.674;-2.050;2023-12-07T00:22:33;5.15;;;2.15;;
81934;SDS011;71405;47.674;-2.050;2023-12-07T00:24:58;4.30;;;2.40;;
81934;SDS011;71405;47.674;-2.050;2023-12-07T00:27:24;4.82;;;2.17;;
81934;SDS011;71405;47.674;-2.050;2023-12-07T00:29:50;3.30;;;1.80;;
81934;SDS011;71405;47.674;-2.050;2023-12-07T00:32:15;5.05;;;2.33;;
81934;SDS011;71405;47.674;-2.050;2023-12-07T00:34:42;5.28;;;2.30;;
81934;SDS011;71405;47.674;-2.050;2023-12-07T00:37:08;4.53;;;2.13;;
81934;SDS011;71405;47.674;-2.050;2023-12-07T00:39:34;4.03;;;2.03;;
81934;SDS011;71405;47.674;-2.050;2023-12-07T00:42:01;3.70;;;2.05;;
81934;SDS011;71405;47.674;-2.050;2023-12-07T00:44:28;3.70;;;1.90;;
81934;SDS011;71405;47.674;-2.050;2023-12-07T00:46:53;3.63;;;1.85;;
81934;SDS011;71405;47.674;-2.050;2023-12-07T00:49:19;4.43;;;2.03;;
81934;SDS011;71405;47.674;-2.050;2023-12-07T00:51:44;4.53;;;2.20;;
81934;SDS011;71405;47.674;-2.050;2023-12-07T00:54:10;3.10;;;1.70;;
81934;SDS011;71405;47.674;-2.050;2023-12-07T00:56:36;4.03;;;1.88;;
81934;SDS011;71405;47.674;-2.050;2023-12-07T00:59:02;5.05;;;1.80;;
81934;SDS011;71405;47.674;-2.050;2023-12-07T01:01:28;4.35;;;1.80;;
81934;SDS011;71405;47.674;-2.050;2023-12-07T01:03:53;5.10;;;1.90;;
81934;SDS011;71405;47.674;-2.050;2023-12-07T01:06:19;4.63;;;1.90;;
81934;SDS011;71405;47.674;-2.050;2023-12-07T01:08:45;6.10;;;2.30;;
81934;SDS011;71405;47.674;-2.050;2023-12-07T01:11:11;3.30;;;2.03;;
81934;SDS011;71405;47.674;-2.050;2023-12-07T01:13:36;3.97;;;1.90;;
81934;SDS011;71405;47.674;-2.050;2023-12-07T01:16:02;3.45;;;1.95;;
81934;SDS011;71405;47.674;-2.050;2023-12-07T01:18:28;3.97;;;2.10;;
81934;SDS011;71405;47.674;-2.050;2023-12-07T01:20:54;4.13;;;1.90;;
81934;SDS011;71405;47.674;-2.050;2023-12-07T01:23:19;3.10;;;2.00;;
81934;SDS011;71405;47.674;-2.050;2023-12-07T01:25:45;2.88;;;1.75;;
81934;SDS011;71405;47.674;-2.050;2023-12-07T01:28:11;3.95;;;1.60;;
81934;SDS011;71405;47.674;-2.050;2023-12-07T01:30:36;3.67;;;1.77;;
81934;SDS011;71405;47.674;-2.050;2023-12-07T01:33:02;4.45;;;1.95;;
81934;SDS011;71405;47.674;-2.050;2023-12-07T01:35:28;3.28;;;1.60;;
81934;SDS011;71405;47.674;-2.050;2023-12-07T01:37:54;3.72;;;1.80;;
81934;SDS011;71405;47.674;-2.050;2023-12-07T01:40:19;4.05;;;1.80;;
81934;SDS011;71405;47.674;-2.050;2023-12-07T01:42:49;3.13;;;1.50;;
81934;SDS011;71405;47.674;-2.050;2023-12-07T01:45:16;3.72;;;1.73;;
81934;SDS011;71405;47.674;-2.050;2023-12-07T01:47:42;3.70;;;1.90;;
81934;SDS011;71405;47.674;-2.050;2023-12-07T01:50:08;3.70;;;1.73;;
81934;SDS011;71405;47.674;-2.050;2023-12-07T01:52:36;3.60;;;1.80;;
81934;SDS011;71405;47.674;-2.050;2023-12-07T01:55:04;3.17;;;1.70;;
81934;SDS011;71405;47.674;-2.050;2023-12-07T01:57:33;3.85;;;1.75;;
81934;SDS011;71405;47.674;-2.050;2023-12-07T01:59:59;3.88;;;1.83;;
81934;SDS011;71405;47.674;-2.050;2023-12-07T02:02:24;4.55;;;1.83;;
81934;SDS011;71405;47.674;-2.050;2023-12-07T02:04:50;3.35;;;1.80;;
81934;SDS011;71405;47.674;-2.050;2023-12-07T02:07:16;4.60;;;2.00;;
81934;SDS011;71405;47.674;-2.050;2023-12-07T02:09:42;3.47;;;1.70;;
81934;SDS011;71405;47.674;-2.050;2023-12-07T02:12:08;2.88;;;1.50;;
81934;SDS011;71405;47.674;-2.050;2023-12-07T02:14:34;3.67;;;1.77;;
81934;SDS011;71405;47.674;-2.050;2023-12-07T02:17:02;4.15;;;1.80;;
81934;SDS011;71405;47.674;-2.050;2023-12-07T02:20:02;2.97;;;1.77;;
81934;SDS011;71405;47.674;-2.050;2023-12-07T02:22:33;4.70;;;2.10;;
81934;SDS011;71405;47.674;-2.050;2023-12-07T02:27:49;3.75;;;1.70;;
81934;SDS011;71405;47.674;-2.050;2023-12-07T02:30:15;3.50;;;1.85;;
81934;SDS011;71405;47.674;-2.050;2023-12-07T02:32:42;3.05;;;1.58;;
81934;SDS011;71405;47.674;-2.050;2023-12-07T02:35:10;4.40;;;1.80;;
81934;SDS011;71405;47.674;-2.050;2023-12-07T02:37:44;2.83;;;1.52;;
81934;SDS011;71405;47.674;-2.050;2023-12-07T02:40:12;3.38;;;1.60;;
81934;SDS011;71405;47.674;-2.050;2023-12-07T02:42:40;3.53;;;1.65;;
81934;SDS011;71405;47.674;-2.050;2023-12-07T02:45:08;3.72;;;1.67;;
81934;SDS011;71405;47.674;-2.050;2023-12-07T02:47:35;3.38;;;1.60;;
81934;SDS011;71405;47.674;-2.050;2023-12-07T02:50:02;3.08;;;1.52;;
81934;SDS011;71405;47.674;-2.050;2023-12-07T02:52:28;2.53;;;1.50;;
81934;SDS011;71405;47.674;-2.050;2023-12-07T02:54:54;3.42;;;1.80;;
81934;SDS011;71405;47.674;-2.050;2023-12-07T02:57:19;2.78;;;1.45;;
81934;SDS011;71405;47.674;-2.050;2023-12-07T02:59:45;2.83;;;1.40;;
81934;SDS011;71405;47.674;-2.050;2023-12-07T03:02:10;3.97;;;1.90;;
81934;SDS011;71405;47.674;-2.050;2023-12-07T03:04:36;3.95;;;1.65;;
81934;SDS011;71405;47.674;-2.050;2023-12-07T03:07:02;4.72;;;1.67;;
81934;SDS011;71405;47.674;-2.050;2023-12-07T03:09:28;3.63;;;1.60;;
81934;SDS011;71405;47.674;-2.050;2023-12-07T03:11:53;4.18;;;1.70;;
81934;SDS011;71405;47.674;-2.050;2023-12-07T03:14:19;3.53;;;1.67;;
81934;SDS011;71405;47.674;-2.050;2023-12-07T03:16:45;4.55;;;1.70;;
81934;SDS011;71405;47.674;-2.050;2023-12-07T03:19:10;2.88;;;1.33;;
81934;SDS011;71405;47.674;-2.050;2023-12-07T03:21:40;3.97;;;1.80;;
81934;SDS011;71405;47.674;-2.050;2023-12-07T03:24:07;3.53;;;1.58;;
81934;SDS011;71405;47.674;-2.050;2023-12-07T03:26:36;4.32;;;1.67;;
81934;SDS011;71405;47.674;-2.050;2023-12-07T03:29:02;2.95;;;1.50;;
81934;SDS011;71405;47.674;-2.050;2023-12-07T03:31:28;4.68;;;1.50;;
81934;SDS011;71405;47.674;-2.050;2023-12-07T03:33:54;2.58;;;1.40;;
81934;SDS011;71405;47.674;-2.050;2023-12-07T03:36:20;3.17;;;1.70;;
81934;SDS011;71405;47.674;-2.050;2023-12-07T03:38:47;3.38;;;1.80;;
81934;SDS011;71405;47.674;-2.050;2023-12-07T03:41:13;3.35;;;1.60;;
81934;SDS011;71405;47.674;-2.050;2023-12-07T03:43:38;4.07;;;1.85;;
81934;SDS011;71405;47.674;-2.050;2023-12-07T03:46:05;2.47;;;1.33;;
81934;SDS011;71405;47.674;-2.050;2023-12-07T03:48:31;2.58;;;1.25;;
81934;SDS011;71405;47.674;-2.050;2023-12-07T03:50:57;2.58;;;1.45;;
81934;SDS011;71405;47.674;-2.050;2023-12-07T03:53:23;2.95;;;1.40;;
81934;SDS011;71405;47.674;-2.050;2023-12-07T03:55:49;3.17;;;1.60;;
81934;SDS011;71405;47.674;-2.050;2023-12-07T03:58:14;3.30;;;1.60;;
81934;SDS011;71405;47.674;-2.050;2023-12-07T04:00:40;3.10;;;1.55;;
81934;SDS011;71405;47.674;-2.050;2023-12-07T04:03:06;3.45;;;1.50;;
81934;SDS011;71405;47.674;-2.050;2023-12-07T04:05:32;3.00;;;1.50;;
81934;SDS011;71405;47.674;-2.050;2023-12-07T04:07:58;3.33;;;1.42;;
81934;SDS011;71405;47.674;-2.050;2023-12-07T04:10:24;3.45;;;1.40;;
81934;SDS011;71405;47.674;-2.050;2023-12-07T04:12:50;3.00;;;1.50;;
81934;SDS011;71405;47.674;-2.050;2023-12-07T04:15:17;3.00;;;1.40;;
81934;SDS011;71405;47.674;-2.050;2023-12-07T04:17:44;2.85;;;1.50;;
81934;SDS011;71405;47.674;-2.050;2023-12-07T04:20:09;3.17;;;1.42;;
81934;SDS011;71405;47.674;-2.050;2023-12-07T04:22:36;3.70;;;1.50;;
81934;SDS011;71405;47.674;-2.050;2023-12-07T04:25:01;2.65;;;1.40;;
81934;SDS011;71405;47.674;-2.050;2023-12-07T04:27:27;2.95;;;1.40;;
81934;SDS011;71405;47.674;-2.050;2023-12-07T04:29:53;2.75;;;1.52;;
81934;SDS011;71405;47.674;-2.050;2023-12-07T04:32:19;3.70;;;1.58;;
81934;SDS011;71405;47.674;-2.050;2023-12-07T04:34:44;4.10;;;1.75;;
81934;SDS011;71405;47.674;-2.050;2023-12-07T04:37:10;4.10;;;1.42;;
81934;SDS011;71405;47.674;-2.050;2023-12-07T04:39:36;3.15;;;1.23;;
81934;SDS011;71405;47.674;-2.050;2023-12-07T04:42:02;3.45;;;1.48;;
81934;SDS011;71405;47.674;-2.050;2023-12-07T04:44:28;2.97;;;1.50;;
81934;SDS011;71405;47.674;-2.050;2023-12-07T04:46:53;3.30;;;1.50;;
81934;SDS011;71405;47.674;-2.050;2023-12-07T04:49:19;3.00;;;1.30;;
81934;SDS011;71405;47.674;-2.050;2023-12-07T04:51:45;3.30;;;1.50;;
81934;SDS011;71405;47.674;-2.050;2023-12-07T04:54:14;2.42;;;1.40;;
81934;SDS011;71405;47.674;-2.050;2023-12-07T04:56:40;3.80;;;1.42;;
81934;SDS011;71405;47.674;-2.050;2023-12-07T04:59:06;3.65;;;1.50;;
81934;SDS011;71405;47.674;-2.050;2023-12-07T05:01:33;2.95;;;1.48;;
81934;SDS011;71405;47.674;-2.050;2023-12-07T05:04:00;4.40;;;1.65;;
81934;SDS011;71405;47.674;-2.050;2023-12-07T05:06:28;3.28;;;1.45;;
81934;SDS011;71405;47.674;-2.050;2023-12-07T05:08:54;3.72;;;1.55;;
81934;SDS011;71405;47.674;-2.050;2023-12-07T05:11:20;1.90;;;1.17;;
81934;SDS011;71405;47.674;-2.050;2023-12-07T05:13:46;5.03;;;1.58;;
81934;SDS011;71405;47.674;-2.050;2023-12-07T05:16:13;3.28;;;1.67;;
81934;SDS011;71405;47.674;-2.050;2023-12-07T05:18:39;3.08;;;1.50;;
81934;SDS011;71405;47.674;-2.050;2023-12-07T05:21:04;2.97;;;1.40;;
81934;SDS011;71405;47.674;-2.050;2023-12-07T05:23:30;3.47;;;1.20;;
81934;SDS011;71405;47.674;-2.050;2023-12-07T05:25:56;4.07;;;1.50;;
81934;SDS011;71405;47.674;-2.050;2023-12-07T05:28:22;2.40;;;1.45;;
81934;SDS011;71405;47.674;-2.050;2023-12-07T05:30:47;3.58;;;1.58;;
81934;SDS011;71405;47.674;-2.050;2023-12-07T05:33:13;2.72;;;1.42;;
81934;SDS011;71405;47.674;-2.050;2023-12-07T05:35:40;2.50;;;1.40;;
81934;SDS011;71405;47.674;-2.050;2023-12-07T05:38:05;2.70;;;1.45;;
81934;SDS011;71405;47.674;-2.050;2023-12-07T05:40:31;2.85;;;1.42;;
81934;SDS011;71405;47.674;-2.050;2023-12-07T05:42:57;3.85;;;1.70;;
81934;SDS011;71405;47.674;-2.050;2023-12-07T05:45:22;2.75;;;1.20;;
81934;SDS011;71405;47.674;-2.050;2023-12-07T05:47:48;2.35;;;1.33;;
81934;SDS011;71405;47.674;-2.050;2023-12-07T05:50:14;3.08;;;1.40;;
81934;SDS011;71405;47.674;-2.050;2023-12-07T05:52:39;2.40;;;1.30;;
81934;SDS011;71405;47.674;-2.050;2023-12-07T05:55:05;3.15;;;1.40;;
81934;SDS011;71405;47.674;-2.050;2023-12-07T05:57:31;3.33;;;1.30;;
81934;SDS011;71405;47.674;-2.050;2023-12-07T05:59:57;2.67;;;1.50;;
81934;SDS011;71405;47.674;-2.050;2023-12-07T06:02:22;1.92;;;1.38;;
81934;SDS011;71405;47.674;-2.050;2023-12-07T06:04:48;2.53;;;1.17;;
81934;SDS011;71405;47.674;-2.050;2023-12-07T06:07:14;3.10;;;1.20;;
81934;SDS011;71405;47.674;-2.050;2023-12-07T06:12:06;3.05;;;1.60;;
81934;SDS011;71405;47.674;-2.050;2023-12-07T06:14:32;2.72;;;1.40;;
81934;SDS011;71405;47.674;-2.050;2023-12-07T06:16:58;2.58;;;1.20;;
81934;SDS011;71405;47.674;-2.050;2023-12-07T06:19:24;2.15;;;1.20;;
81934;SDS011;71405;47.674;-2.050;2023-12-07T06:21:50;3.67;;;1.40;;
81934;SDS011;71405;47.674;-2.050;2023-12-07T06:24:15;2.83;;;1.40;;
81934;SDS011;71405;47.674;-2.050;2023-12-07T06:26:41;2.20;;;1.27;;
81934;SDS011;71405;47.674;-2.050;2023-12-07T06:29:07;2.85;;;1.33;;
81934;SDS011;71405;47.674;-2.050;2023-12-07T06:31:33;3.78;;;1.50;;
81934;SDS011;71405;47.674;-2.050;2023-12-07T06:33:59;4.35;;;1.67;;
81934;SDS011;71405;47.674;-2.050;2023-12-07T06:36:25;3.17;;;1.50;;
81934;SDS011;71405;47.674;-2.050;2023-12-07T06:38:52;3.05;;;1.40;;
81934;SDS011;71405;47.674;-2.050;2023-12-07T06:41:20;2.75;;;1.38;;
81934;SDS011;71405;47.674;-2.050;2023-12-07T06:43:45;2.65;;;1.50;;
81934;SDS011;71405;47.674;-2.050;2023-12-07T06:46:14;4.55;;;1.60;;
81934;SDS011;71405;47.674;-2.050;2023-12-07T06:48:41;8.02;;;3.00;;
81934;SDS011;71405;47.674;-2.050;2023-12-07T06:51:07;6.28;;;2.38;;
81934;SDS011;71405;47.674;-2.050;2023-12-07T06:53:33;4.30;;;1.48;;
81934;SDS011;71405;47.674;-2.050;2023-12-07T06:55:58;4.85;;;1.77;;
81934;SDS011;71405;47.674;-2.050;2023-12-07T06:58:24;4.30;;;1.80;;
81934;SDS011;71405;47.674;-2.050;2023-12-07T07:00:50;4.45;;;1.55;;
81934;SDS011;71405;47.674;-2.050;2023-12-07T07:03:15;3.53;;;1.45;;
81934;SDS011;71405;47.674;-2.050;2023-12-07T07:05:42;4.15;;;1.42;;
81934;SDS011;71405;47.674;-2.050;2023-12-07T07:08:08;3.85;;;1.48;;
81934;SDS011;71405;47.674;-2.050;2023-12-07T07:10:34;3.80;;;1.33;;
81934;SDS011;71405;47.674;-2.050;2023-12-07T07:13:00;4.20;;;1.63;;
81934;SDS011;71405;47.674;-2.050;2023-12-07T07:15:32;7.80;;;2.95;;
81934;SDS011;71405;47.674;-2.050;2023-12-07T07:17:58;16.38;;;5.55;;
81934;SDS011;71405;47.674;-2.050;2023-12-07T07:20:24;17.52;;;4.63;;
81934;SDS011;71405;47.674;-2.050;2023-12-07T07:22:50;29.10;;;8.52;;
81934;SDS011;71405;47.674;-2.050;2023-12-07T07:25:16;22.95;;;6.63;;
81934;SDS011;71405;47.674;-2.050;2023-12-07T07:27:44;21.05;;;6.45;;
81934;SDS011;71405;47.674;-2.050;2023-12-07T07:30:13;26.00;;;7.43;;
81934;SDS011;71405;47.674;-2.050;2023-12-07T07:32:38;21.52;;;6.10;;
81934;SDS011;71405;47.674;-2.050;2023-12-07T07:35:04;19.73;;;7.47;;
81934;SDS011;71405;47.674;-2.050;2023-12-07T07:37:30;22.30;;;6.60;;
81934;SDS011;71405;47.674;-2.050;2023-12-07T07:39:56;16.48;;;6.13;;
81934;SDS011;71405;47.674;-2.050;2023-12-07T07:42:22;18.33;;;6.63;;
81934;SDS011;71405;47.674;-2.050;2023-12-07T07:44:47;16.58;;;6.10;;
81934;SDS011;71405;47.674;-2.050;2023-12-07T07:47:13;16.55;;;5.78;;
81934;SDS011;71405;47.674;-2.050;2023-12-07T07:49:38;17.13;;;5.40;;
81934;SDS011;71405;47.674;-2.050;2023-12-07T07:52:04;17.40;;;4.90;;
81934;SDS011;71405;47.674;-2.050;2023-12-07T07:54:30;17.33;;;5.68;;
81934;SDS011;71405;47.674;-2.050;2023-12-07T07:56:56;15.07;;;4.68;;
81934;SDS011;71405;47.674;-2.050;2023-12-07T07:59:22;15.43;;;5.07;;
81934;SDS011;71405;47.674;-2.050;2023-12-07T08:01:47;15.60;;;5.10;;
81934;SDS011;71405;47.674;-2.050;2023-12-07T08:04:13;13.13;;;4.53;;
81934;SDS011;71405;47.674;-2.050;2023-12-07T08:06:40;14.93;;;4.50;;
81934;SDS011;71405;47.674;-2.050;2023-12-07T08:09:07;12.30;;;4.32;;
81934;SDS011;71405;47.674;-2.050;2023-12-07T08:11:34;12.38;;;4.22;;
81934;SDS011;71405;47.674;-2.050;2023-12-07T08:14:00;12.10;;;3.95;;
81934;SDS011;71405;47.674;-2.050;2023-12-07T08:16:25;14.07;;;4.15;;
81934;SDS011;71405;47.674;-2.050;2023-12-07T08:18:52;12.50;;;3.95;;
81934;SDS011;71405;47.674;-2.050;2023-12-07T08:21:22;10.63;;;3.83;;
81934;SDS011;71405;47.674;-2.050;2023-12-07T08:23:48;11.48;;;3.95;;
81934;SDS011;71405;47.674;-2.050;2023-12-07T08:26:14;11.52;;;3.97;;
81934;SDS011;71405;47.674;-2.050;2023-12-07T08:28:43;9.90;;;3.63;;
81934;SDS011;71405;47.674;-2.050;2023-12-07T08:31:09;11.50;;;3.63;;
81934;SDS011;71405;47.674;-2.050;2023-12-07T08:33:35;10.35;;;3.50;;
81934;SDS011;71405;47.674;-2.050;2023-12-07T08:36:04;9.65;;;3.50;;
81934;SDS011;71405;47.674;-2.050;2023-12-07T08:38:31;12.00;;;3.20;;
81934;SDS011;71405;47.674;-2.050;2023-12-07T08:40:57;8.00;;;2.90;;
81934;SDS011;71405;47.674;-2.050;2023-12-07T08:43:23;12.15;;;4.47;;
81934;SDS011;71405;47.674;-2.050;2023-12-07T08:45:52;9.10;;;2.90;;
81934;SDS011;71405;47.674;-2.050;2023-12-07T08:48:21;11.82;;;3.70;;
81934;SDS011;71405;47.674;-2.050;2023-12-07T08:50:46;8.82;;;3.05;;
81934;SDS011;71405;47.674;-2.050;2023-12-07T08:53:12;8.52;;;3.17;;
81934;SDS011;71405;47.674;-2.050;2023-12-07T08:55:37;8.73;;;3.63;;
81934;SDS011;71405;47.674;-2.050;2023-12-07T08:58:04;9.40;;;2.90;;
81934;SDS011;71405;47.674;-2.050;2023-12-07T09:00:31;8.75;;;3.38;;
81934;SDS011;71405;47.674;-2.050;2023-12-07T09:02:59;7.93;;;2.67;;
81934;SDS011;71405;47.674;-2.050;2023-12-07T09:05:28;8.82;;;2.97;;
81934;SDS011;71405;47.674;-2.050;2023-12-07T09:07:55;8.02;;;3.03;;
81934;SDS011;71405;47.674;-2.050;2023-12-07T09:10:21;7.70;;;2.72;;
81934;SDS011;71405;47.674;-2.050;2023-12-07T09:12:47;7.35;;;2.80;;
81934;SDS011;71405;47.674;-2.050;2023-12-07T09:15:13;9.15;;;2.83;;
81934;SDS011;71405;47.674;-2.050;2023-12-07T09:17:39;8.90;;;2.90;;
81934;SDS011;71405;47.674;-2.050;2023-12-07T09:20:06;7.30;;;2.70;;
81934;SDS011;71405;47.674;-2.050;2023-12-07T09:22:42;9.00;;;2.78;;
81934;SDS011;71405;47.674;-2.050;2023-12-07T09:25:09;6.47;;;3.03;;
81934;SDS011;71405;47.674;-2.050;2023-12-07T09:27:35;7.20;;;2.85;;
81934;SDS011;71405;47.674;-2.050;2023-12-07T09:30:05;6.25;;;2.38;;
81934;SDS011;71405;47.674;-2.050;2023-12-07T09:32:32;7.60;;;2.78;;
81934;SDS011;71405;47.674;-2.050;2023-12-07T09:35:05;7.47;;;2.70;;
81934;SDS011;71405;47.674;-2.050;2023-12-07T09:37:32;7.03;;;2.60;;
81934;SDS011;71405;47.674;-2.050;2023-12-07T09:39:59;6.35;;;2.30;;
81934;SDS011;71405;47.674;-2.050;2023-12-07T09:42:25;7.03;;;2.83;;
81934;SDS011;71405;47.674;-2.050;2023-12-07T09:44:51;10.43;;;2.90;;
81934;SDS011;71405;47.674;-2.050;2023-12-07T09:47:17;7.63;;;2.97;;
81934;SDS011;71405;47.674;-2.050;2023-12-07T09:49:44;6.78;;;2.42;;
81934;SDS011;71405;47.674;-2.050;2023-12-07T09:52:10;6.85;;;2.42;;
81934;SDS011;71405;47.674;-2.050;2023-12-07T09:54:39;6.57;;;2.60;;
81934;SDS011;71405;47.674;-2.050;2023-12-07T09:57:07;7.05;;;2.42;;
81934;SDS011;71405;47.674;-2.050;2023-12-07T09:59:35;7.47;;;2.90;;
81934;SDS011;71405;47.674;-2.050;2023-12-07T10:02:01;5.90;;;2.30;;
81934;SDS011;71405;47.674;-2.050;2023-12-07T10:04:27;6.50;;;2.40;;
81934;SDS011;71405;47.674;-2.050;2023-12-07T10:06:53;6.68;;;2.65;;
81934;SDS011;71405;47.674;-2.050;2023-12-07T10:09:19;6.03;;;2.38;;
81934;SDS011;71405;47.674;-2.050;2023-12-07T10:11:46;4.97;;;1.90;;
81934;SDS011;71405;47.674;-2.050;2023-12-07T10:14:13;5.65;;;2.30;;
81934;SDS011;71405;47.674;-2.050;2023-12-07T10:16:51;6.43;;;2.42;;
81934;SDS011;71405;47.674;-2.050;2023-12-07T10:19:20;7.50;;;2.67;;
81934;SDS011;71405;47.674;-2.050;2023-12-07T10:21:49;4.82;;;2.28;;
81934;SDS011;71405;47.674;-2.050;2023-12-07T10:24:16;5.25;;;2.08;;
81934;SDS011;71405;47.674;-2.050;2023-12-07T10:26:46;6.30;;;2.70;;
81934;SDS011;71405;47.674;-2.050;2023-12-07T10:29:13;5.13;;;2.20;;
81934;SDS011;71405;47.674;-2.050;2023-12-07T10:31:39;6.38;;;2.17;;
81934;SDS011;71405;47.674;-2.050;2023-12-07T10:34:05;5.82;;;2.30;;
81934;SDS011;71405;47.674;-2.050;2023-12-07T10:36:32;4.75;;;2.10;;
81934;SDS011;71405;47.674;-2.050;2023-12-07T10:38:58;6.15;;;2.17;;
81934;SDS011;71405;47.674;-2.050;2023-12-07T10:41:24;5.78;;;2.50;;
81934;SDS011;71405;47.674;-2.050;2023-12-07T10:43:59;5.70;;;2.30;;
81934;SDS011;71405;47.674;-2.050;2023-12-07T10:46:26;5.75;;;2.00;;
81934;SDS011;71405;47.674;-2.050;2023-12-07T10:49:03;5.50;;;2.30;;
81934;SDS011;71405;47.674;-2.050;2023-12-07T10:51:50;5.22;;;2.03;;
81934;SDS011;71405;47.674;-2.050;2023-12-07T10:54:21;4.90;;;2.10;;
81934;SDS011;71405;47.674;-2.050;2023-12-07T10:56:50;5.50;;;2.00;;
81934;SDS011;71405;47.674;-2.050;2023-12-07T10:59:16;3.85;;;1.77;;
81934;SDS011;71405;47.674;-2.050;2023-12-07T11:01:43;5.63;;;2.33;;
81934;SDS011;71405;47.674;-2.050;2023-12-07T11:04:11;5.80;;;2.40;;
81934;SDS011;71405;47.674;-2.050;2023-12-07T11:06:38;5.28;;;2.25;;
81934;SDS011;71405;47.674;-2.050;2023-12-07T11:09:08;5.38;;;2.22;;
81934;SDS011;71405;47.674;-2.050;2023-12-07T11:11:46;5.00;;;2.03;;
81934;SDS011;71405;47.674;-2.050;2023-12-07T11:14:16;4.50;;;1.98;;
81934;SDS011;71405;47.674;-2.050;2023-12-07T11:16:43;5.97;;;2.40;;
81934;SDS011;71405;47.674;-2.050;2023-12-07T11:21:55;4.03;;;1.90;;
81934;SDS011;71405;47.674;-2.050;2023-12-07T11:24:22;5.20;;;1.90;;
81934;SDS011;71405;47.674;-2.050;2023-12-07T11:26:51;3.83;;;1.80;;
81934;SDS011;71405;47.674;-2.050;2023-12-07T11:29:19;4.80;;;1.98;;
81934;SDS011;71405;47.674;-2.050;2023-12-07T11:32:01;5.93;;;2.05;;
81934;SDS011;71405;47.674;-2.050;2023-12-07T11:34:41;3.53;;;1.85;;
81934;SDS011;71405;47.674;-2.050;2023-12-07T11:37:09;5.05;;;1.85;;
81934;SDS011;71405;47.674;-2.050;2023-12-07T11:39:37;6.32;;;2.00;;
81934;SDS011;71405;47.674;-2.050;2023-12-07T11:42:20;4.35;;;1.80;;
81934;SDS011;71405;47.674;-2.050;2023-12-07T11:44:48;5.22;;;2.08;;
81934;SDS011;71405;47.674;-2.050;2023-12-07T11:47:16;4.10;;;2.00;;
81934;SDS011;71405;47.674;-2.050;2023-12-07T11:49:43;4.22;;;1.80;;
81934;SDS011;71405;47.674;-2.050;2023-12-07T11:52:16;3.90;;;1.80;;
81934;SDS011;71405;47.674;-2.050;2023-12-07T11:54:48;4.90;;;2.08;;
81934;SDS011;71405;47.674;-2.050;2023-12-07T11:57:15;4.82;;;1.92;;
81934;SDS011;71405;47.674;-2.050;2023-12-07T11:59:42;4.72;;;1.77;;
81934;SDS011;71405;47.674;-2.050;2023-12-07T12:02:12;5.35;;;1.98;;
81934;SDS011;71405;47.674;-2.050;2023-12-07T12:04:39;4.80;;;2.10;;
81934;SDS011;71405;47.674;-2.050;2023-12-07T12:07:05;4.18;;;1.73;;
81934;SDS011;71405;47.674;-2.050;2023-12-07T12:09:31;5.70;;;1.70;;
81934;SDS011;71405;47.674;-2.050;2023-12-07T12:11:59;5.13;;;2.10;;
81934;SDS011;71405;47.674;-2.050;2023-12-07T12:14:25;3.45;;;1.58;;
81934;SDS011;71405;47.674;-2.050;2023-12-07T12:16:52;4.88;;;1.95;;
81934;SDS011;71405;47.674;-2.050;2023-12-07T12:19:18;5.78;;;2.13;;
81934;SDS011;71405;47.674;-2.050;2023-12-07T12:21:44;3.35;;;1.60;;
81934;SDS011;71405;47.674;-2.050;2023-12-07T12:24:11;4.50;;;1.80;;
81934;SDS011;71405;47.674;-2.050;2023-12-07T12:26:39;2.55;;;1.50;;
81934;SDS011;71405;47.674;-2.050;2023-12-07T12:29:06;4.25;;;1.65;;
81934;SDS011;71405;47.674;-2.050;2023-12-07T12:31:33;4.25;;;1.73;;
81934;SDS011;71405;47.674;-2.050;2023-12-07T12:34:05;3.53;;;1.80;;
81934;SDS011;71405;47.674;-2.050;2023-12-07T12:36:32;6.05;;;2.10;;
81934;SDS011;71405;47.674;-2.050;2023-12-07T12:38:58;4.57;;;1.88;;
81934;SDS011;71405;47.674;-2.050;2023-12-07T12:41:24;4.97;;;1.90;;
81934;SDS011;71405;47.674;-2.050;2023-12-07T12:43:51;4.40;;;1.80;;
81934;SDS011;71405;47.674;-2.050;2023-12-07T12:46:17;3.72;;;1.60;;
81934;SDS011;71405;47.674;-2.050;2023-12-07T12:48:59;4.78;;;1.77;;
81934;SDS011;71405;47.674;-2.050;2023-12-07T12:51:26;4.70;;;2.10;;
81934;SDS011;71405;47.674;-2.050;2023-12-07T12:53:53;3.97;;;1.60;;
81934;SDS011;71405;47.674;-2.050;2023-12-07T12:56:20;3.45;;;1.70;;
81934;SDS011;71405;47.674;-2.050;2023-12-07T12:58:50;3.60;;;1.90;;
81934;SDS011;71405;47.674;-2.050;2023-12-07T13:01:17;3.97;;;2.00;;
81934;SDS011;71405;47.674;-2.050;2023-12-07T13:03:44;3.42;;;1.50;;
81934;SDS011;71405;47.674;-2.050;2023-12-07T13:06:13;2.33;;;1.60;;
81934;SDS011;71405;47.674;-2.050;2023-12-07T13:08:40;4.57;;;1.75;;
81934;SDS011;71405;47.674;-2.050;2023-12-07T13:11:06;3.45;;;1.60;;
81934;SDS011;71405;47.674;-2.050;2023-12-07T13:13:32;4.22;;;1.73;;
81934;SDS011;71405;47.674;-2.050;2023-12-07T13:15:57;4.13;;;1.80;;
81934;SDS011;71405;47.674;-2.050;2023-12-07T13:18:23;3.03;;;1.65;;
81934;SDS011;71405;47.674;-2.050;2023-12-07T13:20:49;4.30;;;1.63;;
81934;SDS011;71405;47.674;-2.050;2023-12-07T13:23:14;3.42;;;1.60;;
81934;SDS011;71405;47.674;-2.050;2023-12-07T13:25:40;2.90;;;1.60;;
81934;SDS011;71405;47.674;-2.050;2023-12-07T13:28:06;3.90;;;1.73;;
81934;SDS011;71405;47.674;-2.050;2023-12-07T13:30:33;3.60;;;1.55;;
81934;SDS011;71405;47.674;-2.050;2023-12-07T13:33:00;2.97;;;1.60;;
81934;SDS011;71405;47.674;-2.050;2023-12-07T13:35:26;3.40;;;1.73;;
81934;SDS011;71405;47.674;-2.050;2023-12-07T13:37:52;4.38;;;1.85;;
81934;SDS011;71405;47.674;-2.050;2023-12-07T13:40:18;2.90;;;1.55;;
81934;SDS011;71405;47.674;-2.050;2023-12-07T13:42:43;4.13;;;1.88;;
81934;SDS011;71405;47.674;-2.050;2023-12-07T13:45:09;3.85;;;1.63;;
81934;SDS011;71405;47.674;-2.050;2023-12-07T13:47:35;3.85;;;1.77;;
81934;SDS011;71405;47.674;-2.050;2023-12-07T13:50:03;4.65;;;1.77;;
81934;SDS011;71405;47.674;-2.050;2023-12-07T13:52:30;3.88;;;1.80;;
81934;SDS011;71405;47.674;-2.050;2023-12-07T13:54:56;4.63;;;1.85;;
81934;SDS011;71405;47.674;-2.050;2023-12-07T13:57:22;4.57;;;1.75;;
81934;SDS011;71405;47.674;-2.050;2023-12-07T13:59:52;4.72;;;1.92;;
81934;SDS011;71405;47.674;-2.050;2023-12-07T14:02:21;4.63;;;1.83;;
81934;SDS011;71405;47.674;-2.050;2023-12-07T14:04:47;4.13;;;1.80;;
81934;SDS011;71405;47.674;-2.050;2023-12-07T14:07:16;3.25;;;1.52;;
81934;SDS011;71405;47.674;-2.050;2023-12-07T14:09:44;3.20;;;1.73;;
81934;SDS011;71405;47.674;-2.050;2023-12-07T14:12:11;3.65;;;1.83;;
81934;SDS011;71405;47.674;-2.050;2023-12-07T14:14:41;3.38;;;1.90;;
81934;SDS011;71405;47.674;-2.050;2023-12-07T14:17:08;6.32;;;2.72;;
81934;SDS011;71405;47.674;-2.050;2023-12-07T14:19:34;3.60;;;1.80;;
81934;SDS011;71405;47.674;-2.050;2023-12-07T14:22:00;4.43;;;2.17;;
81934;SDS011;71405;47.674;-2.050;2023-12-07T14:24:26;4.07;;;2.00;;
81934;SDS011;71405;47.674;-2.050;2023-12-07T14:26:52;3.95;;;1.83;;
81934;SDS011;71405;47.674;-2.050;2023-12-07T14:29:19;3.33;;;1.70;;
81934;SDS011;71405;47.674;-2.050;2023-12-07T14:31:46;3.42;;;1.70;;
81934;SDS011;71405;47.674;-2.050;2023-12-07T14:34:13;3.78;;;1.85;;
81934;SDS011;71405;47.674;-2.050;2023-12-07T14:36:40;3.47;;;1.60;;
81934;SDS011;71405;47.674;-2.050;2023-12-07T14:39:09;3.97;;;1.73;;